createdAt,value
2018-04-13T00:00:18.699Z,975.62
2018-04-13T00:01:18.697Z,975.67
2018-04-13T00:02:18.694Z,975.66
2018-04-13T00:03:18.692Z,975.69
2018-04-13T00:04:18.687Z,975.64
2018-04-13T00:05:18.684Z,975.66
2018-04-13T00:06:18.695Z,975.63
2018-04-13T00:07:18.683Z,975.59
2018-04-13T00:08:18.676Z,975.62
2018-04-13T00:09:18.670Z,975.57
2018-04-13T00:10:18.687Z,975.52
2018-04-13T00:11:18.680Z,975.52
2018-04-13T00:12:18.661Z,975.52
2018-04-13T00:13:18.659Z,975.51
2018-04-13T00:14:18.655Z,975.54
2018-04-13T00:15:18.656Z,975.49
2018-04-13T00:16:18.663Z,975.49
2018-04-13T00:17:18.647Z,975.52
2018-04-13T00:18:18.648Z,975.52
2018-04-13T00:19:18.654Z,975.51
2018-04-13T00:20:18.645Z,975.55
2018-04-13T00:21:18.634Z,975.57
2018-04-13T00:22:18.632Z,975.63
2018-04-13T00:23:18.628Z,975.68
2018-04-13T00:24:18.627Z,975.68
2018-04-13T00:25:18.622Z,975.67
2018-04-13T00:26:18.620Z,975.65
2018-04-13T00:27:18.618Z,975.67
2018-04-13T00:28:18.614Z,975.66
2018-04-13T00:29:18.613Z,975.67
2018-04-13T00:30:18.606Z,975.63
2018-04-13T00:31:18.605Z,975.6
2018-04-13T00:32:18.614Z,975.58
2018-04-13T00:33:18.600Z,975.63
2018-04-13T00:34:18.599Z,975.62
2018-04-13T00:35:18.598Z,975.65
2018-04-13T00:36:18.593Z,975.65
2018-04-13T00:37:18.586Z,975.67
2018-04-13T00:38:18.582Z,975.69
2018-04-13T00:39:18.579Z,975.68
2018-04-13T00:40:18.581Z,975.68
2018-04-13T00:41:18.573Z,975.72
2018-04-13T00:42:18.572Z,975.66
2018-04-13T00:43:21.178Z,975.74
2018-04-13T00:44:18.570Z,975.7
2018-04-13T00:45:18.561Z,975.74
2018-04-13T00:46:18.559Z,975.75
2018-04-13T00:47:18.556Z,975.69
2018-04-13T00:48:18.554Z,975.71
2018-04-13T00:49:18.549Z,975.73
2018-04-13T00:50:18.547Z,975.73
2018-04-13T00:51:18.544Z,975.78
2018-04-13T00:52:18.544Z,975.8
2018-04-13T00:53:18.536Z,975.77
2018-04-13T00:54:18.534Z,975.77
2018-04-13T00:55:18.534Z,975.81
2018-04-13T00:56:18.535Z,975.82
2018-04-13T00:57:18.523Z,975.87
2018-04-13T00:58:18.522Z,975.87
2018-04-13T00:59:18.516Z,975.84
2018-04-13T01:00:18.517Z,975.85
2018-04-13T01:01:18.510Z,975.86
2018-04-13T01:02:18.507Z,975.82
2018-04-13T01:03:18.504Z,975.87
2018-04-13T01:04:18.500Z,975.91
2018-04-13T01:05:18.497Z,975.85
2018-04-13T01:06:18.494Z,975.92
2018-04-13T01:07:18.491Z,975.89
2018-04-13T01:08:18.488Z,975.91
2018-04-13T01:09:18.484Z,975.89
2018-04-13T01:10:18.482Z,975.9
2018-04-13T01:11:18.479Z,975.85
2018-04-13T01:12:18.473Z,975.87
2018-04-13T01:13:18.474Z,975.83
2018-04-13T01:14:18.467Z,975.85
2018-04-13T01:15:18.463Z,975.85
2018-04-13T01:16:18.466Z,975.87
2018-04-13T01:17:18.457Z,975.86
2018-04-13T01:18:18.452Z,975.8
2018-04-13T01:19:18.451Z,975.81
2018-04-13T01:20:18.446Z,975.85
2018-04-13T01:21:18.442Z,975.85
2018-04-13T01:22:18.440Z,975.8
2018-04-13T01:23:18.436Z,975.8
2018-04-13T01:24:18.434Z,975.77
2018-04-13T01:25:18.430Z,975.74
2018-04-13T01:26:18.428Z,975.72
2018-04-13T01:27:18.422Z,975.71
2018-04-13T01:28:18.419Z,975.72
2018-04-13T01:29:18.423Z,975.74
2018-04-13T01:30:18.411Z,975.65
2018-04-13T01:31:18.411Z,975.67
2018-04-13T01:32:18.404Z,975.65
2018-04-13T01:33:18.401Z,975.65
2018-04-13T01:34:18.397Z,975.62
2018-04-13T01:35:18.397Z,975.61
2018-04-13T01:36:18.388Z,975.6
2018-04-13T01:37:18.386Z,975.66
2018-04-13T01:38:18.388Z,975.61
2018-04-13T01:39:18.383Z,975.63
2018-04-13T01:40:18.374Z,975.62
2018-04-13T01:41:18.373Z,975.62
2018-04-13T01:42:18.371Z,975.63
2018-04-13T01:43:18.373Z,975.61
2018-04-13T01:44:20.262Z,975.59
2018-04-13T01:45:18.356Z,975.64
2018-04-13T01:46:18.354Z,975.64
2018-04-13T01:47:18.350Z,975.63
2018-04-13T01:48:18.346Z,975.63
2018-04-13T01:49:18.341Z,975.64
2018-04-13T01:50:18.341Z,975.63
2018-04-13T01:51:18.335Z,975.63
2018-04-13T01:52:18.332Z,975.64
2018-04-13T01:53:18.335Z,975.66
2018-04-13T01:54:18.322Z,975.66
2018-04-13T01:55:18.324Z,975.62
2018-04-13T01:56:18.318Z,975.63
2018-04-13T01:57:18.322Z,975.6
2018-04-13T01:58:18.309Z,975.61
2018-04-13T01:59:18.310Z,975.61
2018-04-13T02:00:18.301Z,975.69
2018-04-13T02:01:18.297Z,975.72
2018-04-13T02:02:18.294Z,975.74
2018-04-13T02:03:18.295Z,975.77
2018-04-13T02:04:18.287Z,975.79
2018-04-13T02:05:18.282Z,975.81
2018-04-13T02:06:18.278Z,975.84
2018-04-13T02:07:18.275Z,975.86
2018-04-13T02:08:18.272Z,975.84
2018-04-13T02:09:18.266Z,975.86
2018-04-13T02:10:18.267Z,975.81
2018-04-13T02:11:18.261Z,975.89
2018-04-13T02:12:18.257Z,975.9
2018-04-13T02:13:18.252Z,975.9
2018-04-13T02:14:18.248Z,975.94
2018-04-13T02:15:18.247Z,975.93
2018-04-13T02:16:18.240Z,975.98
2018-04-13T02:17:18.236Z,975.97
2018-04-13T02:18:18.234Z,976
2018-04-13T02:19:18.230Z,975.99
2018-04-13T02:20:18.222Z,975.99
2018-04-13T02:21:18.219Z,975.98
2018-04-13T02:22:18.217Z,976.02
2018-04-13T02:23:18.209Z,976.03
2018-04-13T02:24:18.208Z,976.03
2018-04-13T02:25:18.206Z,975.99
2018-04-13T02:26:18.200Z,976.04
2018-04-13T02:27:18.195Z,976.01
2018-04-13T02:28:18.192Z,976.06
2018-04-13T02:29:18.188Z,976.11
2018-04-13T02:30:18.182Z,976.07
2018-04-13T02:31:18.179Z,976.11
2018-04-13T02:32:18.174Z,976.1
2018-04-13T02:33:18.174Z,976.12
2018-04-13T02:34:18.247Z,976.12
2018-04-13T02:35:18.161Z,976.12
2018-04-13T02:36:18.158Z,976.12
2018-04-13T02:37:18.161Z,976.1
2018-04-13T02:38:18.152Z,976.13
2018-04-13T02:39:18.150Z,976.16
2018-04-13T02:40:18.143Z,976.13
2018-04-13T02:41:18.138Z,976.14
2018-04-13T02:42:18.137Z,976.16
2018-04-13T02:43:18.177Z,976.2
2018-04-13T02:44:18.128Z,976.19
2018-04-13T02:45:18.123Z,976.2
2018-04-13T02:46:18.120Z,976.17
2018-04-13T02:47:18.114Z,976.21
2018-04-13T02:48:18.111Z,976.25
2018-04-13T02:49:18.105Z,976.19
2018-04-13T02:50:18.101Z,976.19
2018-04-13T02:51:18.099Z,976.16
2018-04-13T02:52:18.098Z,976.15
2018-04-13T02:53:18.090Z,976.14
2018-04-13T02:54:18.087Z,976.13
2018-04-13T02:55:18.085Z,976.14
2018-04-13T02:56:18.078Z,976.16
2018-04-13T02:57:18.073Z,976.2
2018-04-13T02:58:18.068Z,976.22
2018-04-13T02:59:18.065Z,976.21
2018-04-13T03:00:18.062Z,976.23
2018-04-13T03:01:18.060Z,976.19
2018-04-13T03:02:18.055Z,976.24
2018-04-13T03:03:18.049Z,976.24
2018-04-13T03:04:18.043Z,976.24
2018-04-13T03:05:18.040Z,976.24
2018-04-13T03:06:18.036Z,976.21
2018-04-13T03:07:18.032Z,976.17
2018-04-13T03:08:18.032Z,976.19
2018-04-13T03:09:18.025Z,976.21
2018-04-13T03:10:18.022Z,976.26
2018-04-13T03:11:18.018Z,976.21
2018-04-13T03:12:18.015Z,976.22
2018-04-13T03:13:18.011Z,976.24
2018-04-13T03:14:18.004Z,976.27
2018-04-13T03:15:18.003Z,976.22
2018-04-13T03:16:18.003Z,976.2
2018-04-13T03:17:17.996Z,976.19
2018-04-13T03:18:17.989Z,976.2
2018-04-13T03:19:17.987Z,976.14
2018-04-13T03:20:17.985Z,976.15
2018-04-13T03:21:17.981Z,976.14
2018-04-13T03:22:17.978Z,976.12
2018-04-13T03:23:17.971Z,976.14
2018-04-13T03:24:17.965Z,976.16
2018-04-13T03:25:17.961Z,976.15
2018-04-13T03:26:17.957Z,976.18
2018-04-13T03:27:17.954Z,976.19
2018-04-13T03:28:17.950Z,976.23
2018-04-13T03:29:17.945Z,976.24
2018-04-13T03:38:11.782Z,976.33
2018-04-13T03:39:11.773Z,976.34
2018-04-13T03:40:12.386Z,976.36
2018-04-13T03:41:11.763Z,976.36
2018-04-13T03:42:11.760Z,976.4
2018-04-13T03:43:11.757Z,976.36
2018-04-13T03:44:11.752Z,976.43
2018-04-13T03:45:12.162Z,976.4
2018-04-13T03:46:11.748Z,976.34
2018-04-13T03:47:11.753Z,976.36
2018-04-13T03:48:11.789Z,976.34
2018-04-13T03:49:11.737Z,976.37
2018-04-13T03:50:12.202Z,976.39
2018-04-13T03:51:11.767Z,976.36
2018-04-13T03:52:11.722Z,976.4
2018-04-13T03:53:11.717Z,976.41
2018-04-13T03:54:11.715Z,976.4
2018-04-13T03:55:12.048Z,976.41
2018-04-13T03:56:11.711Z,976.36
2018-04-13T03:57:11.701Z,976.4
2018-04-13T03:58:11.699Z,976.4
2018-04-13T03:59:11.693Z,976.38
2018-04-13T04:00:12.117Z,976.42
2018-04-13T04:01:11.685Z,976.35
2018-04-13T04:02:11.756Z,976.35
2018-04-13T04:03:11.878Z,976.41
2018-04-13T04:04:11.672Z,976.39
2018-04-13T04:05:12.255Z,976.42
2018-04-13T04:06:11.664Z,976.46
2018-04-13T04:07:11.659Z,976.44
2018-04-13T04:08:11.662Z,976.47
2018-04-13T04:09:11.654Z,976.49
2018-04-13T04:10:12.009Z,976.49
2018-04-13T04:11:11.645Z,976.53
2018-04-13T04:12:11.642Z,976.55
2018-04-13T04:13:11.634Z,976.52
2018-04-13T04:14:11.630Z,976.57
2018-04-13T04:15:12.094Z,976.57
2018-04-13T04:16:11.624Z,976.59
2018-04-13T04:17:11.620Z,976.59
2018-04-13T04:18:11.667Z,976.61
2018-04-13T04:19:11.615Z,976.64
2018-04-13T04:20:12.060Z,976.66
2018-04-13T04:21:11.609Z,976.67
2018-04-13T04:22:11.608Z,976.69
2018-04-13T04:23:11.598Z,976.69
2018-04-13T04:24:11.623Z,976.74
2018-04-13T04:25:12.020Z,976.73
2018-04-13T04:26:11.583Z,976.76
2018-04-13T04:27:11.584Z,976.76
2018-04-13T04:28:11.576Z,976.81
2018-04-13T04:29:11.572Z,976.81
2018-04-13T04:30:12.072Z,976.84
2018-04-13T04:31:11.574Z,976.87
2018-04-13T04:32:11.558Z,976.87
2018-04-13T04:33:16.659Z,976.92
2018-04-13T04:34:11.553Z,976.92
2018-04-13T04:35:12.042Z,976.95
2018-04-13T04:36:11.540Z,976.94
2018-04-13T04:37:11.535Z,976.99
2018-04-13T04:38:11.531Z,976.99
2018-04-13T04:39:11.527Z,977
2018-04-13T04:40:11.854Z,977.04
2018-04-13T04:41:11.519Z,977.15
2018-04-13T04:42:11.514Z,977.08
2018-04-13T04:43:11.517Z,977.16
2018-04-13T04:44:11.514Z,977.17
2018-04-13T04:45:11.981Z,977.18
2018-04-13T04:46:11.502Z,977.15
2018-04-13T04:47:11.494Z,977.22
2018-04-13T04:48:11.490Z,977.25
2018-04-13T04:49:11.486Z,977.2
2018-04-13T04:50:11.900Z,977.28
2018-04-13T04:51:11.479Z,977.26
2018-04-13T04:52:11.472Z,977.28
2018-04-13T04:53:11.467Z,977.31
2018-04-13T04:54:11.467Z,977.31
2018-04-13T04:55:11.800Z,977.34
2018-04-13T04:56:11.472Z,977.37
2018-04-13T04:57:11.452Z,977.4
2018-04-13T04:58:11.450Z,977.38
2018-04-13T04:59:11.443Z,977.36
2018-04-13T05:00:11.818Z,977.38
2018-04-13T05:01:11.461Z,977.39
2018-04-13T05:02:11.431Z,977.38
2018-04-13T05:03:11.439Z,977.37
2018-04-13T05:04:11.876Z,977.42
2018-04-13T05:05:12.033Z,977.38
2018-04-13T05:06:11.427Z,977.4
2018-04-13T05:07:11.419Z,977.41
2018-04-13T05:08:11.413Z,977.4
2018-04-13T05:09:11.417Z,977.41
2018-04-13T05:10:12.036Z,977.43
2018-04-13T05:11:11.397Z,977.41
2018-04-13T05:12:11.392Z,977.45
2018-04-13T05:13:11.391Z,977.44
2018-04-13T05:14:11.383Z,977.47
2018-04-13T05:15:11.755Z,977.5
2018-04-13T05:16:11.387Z,977.52
2018-04-13T05:17:11.385Z,977.53
2018-04-13T05:18:11.369Z,977.58
2018-04-13T05:19:11.420Z,977.53
2018-04-13T05:20:11.996Z,977.54
2018-04-13T05:21:11.356Z,977.53
2018-04-13T05:22:11.354Z,977.57
2018-04-13T05:23:11.349Z,977.6
2018-04-13T05:24:11.343Z,977.61
2018-04-13T05:25:11.784Z,977.61
2018-04-13T05:26:11.345Z,977.61
2018-04-13T05:27:11.335Z,977.61
2018-04-13T05:28:11.338Z,977.61
2018-04-13T05:29:11.343Z,977.64
2018-04-13T05:30:11.930Z,977.65
2018-04-13T05:31:11.338Z,977.65
2018-04-13T05:32:11.316Z,977.65
2018-04-13T05:33:11.320Z,977.67
2018-04-13T05:34:15.111Z,977.66
2018-04-13T05:35:12.062Z,977.7
2018-04-13T05:36:11.297Z,977.69
2018-04-13T05:37:11.296Z,977.68
2018-04-13T05:38:11.294Z,977.66
2018-04-13T05:39:11.288Z,977.69
2018-04-13T05:40:11.613Z,977.65
2018-04-13T05:41:11.284Z,977.68
2018-04-13T05:42:11.277Z,977.7
2018-04-13T05:43:11.279Z,977.65
2018-04-13T05:44:11.274Z,977.66
2018-04-13T05:45:11.574Z,977.65
2018-04-13T05:46:11.267Z,977.66
2018-04-13T05:47:11.269Z,977.7
2018-04-13T05:48:11.259Z,977.64
2018-04-13T05:49:11.254Z,977.63
2018-04-13T05:50:11.638Z,977.67
2018-04-13T05:51:11.249Z,977.66
2018-04-13T05:52:11.244Z,977.65
2018-04-13T05:53:11.241Z,977.62
2018-04-13T05:54:11.235Z,977.66
2018-04-13T05:55:11.602Z,977.7
2018-04-13T05:56:11.232Z,977.69
2018-04-13T05:57:11.228Z,977.67
2018-04-13T05:58:11.223Z,977.7
2018-04-13T05:59:11.221Z,977.67
2018-04-13T06:00:11.545Z,977.68
2018-04-13T06:01:11.214Z,977.72
2018-04-13T06:02:11.214Z,977.72
2018-04-13T06:03:11.206Z,977.73
2018-04-13T06:04:11.206Z,977.76
2018-04-13T06:05:11.467Z,977.8
2018-04-13T06:06:11.200Z,977.82
2018-04-13T06:07:11.193Z,977.78
2018-04-13T06:08:11.191Z,977.79
2018-04-13T06:09:11.187Z,977.76
2018-04-13T06:10:11.613Z,977.76
2018-04-13T06:11:11.184Z,977.78
2018-04-13T06:12:11.190Z,977.77
2018-04-13T06:13:11.225Z,977.69
2018-04-13T06:22:57.317Z,977.69
2018-04-13T06:23:57.311Z,977.67
2018-04-13T06:24:57.302Z,977.74
2018-04-13T06:25:57.297Z,977.75
2018-04-13T06:26:57.294Z,977.77
2018-04-13T06:27:57.287Z,977.8
2018-04-13T06:28:57.294Z,977.84
2018-04-13T06:29:57.296Z,977.87
2018-04-13T06:30:57.270Z,977.87
2018-04-13T06:31:57.267Z,977.93
2018-04-13T06:32:57.264Z,977.96
2018-04-13T06:33:57.259Z,977.96
2018-04-13T06:34:57.261Z,977.99
2018-04-13T06:35:57.253Z,977.99
2018-04-13T06:36:57.251Z,978.03
2018-04-13T06:37:57.252Z,978.03
2018-04-13T06:38:57.244Z,978.04
2018-04-13T06:39:57.241Z,978
2018-04-13T06:40:57.237Z,978.02
2018-04-13T06:41:57.235Z,978
2018-04-13T06:42:57.247Z,978.06
2018-04-13T06:43:57.228Z,978.08
2018-04-13T06:44:57.227Z,978.07
2018-04-13T06:45:57.225Z,978.12
2018-04-13T06:46:57.222Z,978.12
2018-04-13T06:47:57.222Z,978.15
2018-04-13T06:48:57.217Z,978.17
2018-04-13T06:49:57.215Z,978.19
2018-04-13T06:50:57.212Z,978.19
2018-04-13T06:51:57.212Z,978.26
2018-04-13T06:52:57.207Z,978.23
2018-04-13T06:53:57.207Z,978.26
2018-04-13T06:54:57.208Z,978.3
2018-04-13T06:55:57.202Z,978.31
2018-04-13T06:56:57.202Z,978.33
2018-04-13T06:57:57.204Z,978.38
2018-04-13T06:58:57.209Z,978.41
2018-04-13T06:59:57.195Z,978.42
2018-04-13T07:00:57.193Z,978.45
2018-04-13T07:01:57.191Z,978.49
2018-04-13T07:02:57.188Z,978.51
2018-04-13T07:03:57.220Z,978.52
2018-04-13T07:04:57.190Z,978.55
2018-04-13T07:05:57.191Z,978.55
2018-04-13T07:06:57.186Z,978.52
2018-04-13T07:07:57.206Z,978.52
2018-04-13T07:08:57.183Z,978.52
2018-04-13T07:09:57.178Z,978.56
2018-04-13T07:10:57.177Z,978.57
2018-04-13T07:11:57.173Z,978.57
2018-04-13T07:12:57.172Z,978.59
2018-04-13T07:13:57.174Z,978.58
2018-04-13T07:14:57.169Z,978.59
2018-04-13T07:15:57.168Z,978.57
2018-04-13T07:16:57.165Z,978.58
2018-04-13T07:17:57.164Z,978.61
2018-04-13T07:18:57.162Z,978.64
2018-04-13T07:19:57.161Z,978.65
2018-04-13T07:20:57.158Z,978.71
2018-04-13T07:21:57.157Z,978.72
2018-04-13T07:22:57.157Z,978.74
2018-04-13T07:23:58.293Z,978.76
2018-04-13T07:24:57.199Z,978.83
2018-04-13T07:25:57.151Z,978.84
2018-04-13T07:26:57.162Z,978.85
2018-04-13T07:27:57.149Z,978.85
2018-04-13T07:28:57.148Z,978.87
2018-04-13T07:29:57.147Z,978.85
2018-04-13T07:30:57.146Z,978.85
2018-04-13T07:31:57.145Z,978.81
2018-04-13T07:32:57.142Z,978.88
2018-04-13T07:33:57.141Z,978.92
2018-04-13T07:34:57.140Z,978.91
2018-04-13T07:35:57.138Z,978.96
2018-04-13T07:36:57.139Z,978.96
2018-04-13T07:37:57.136Z,978.92
2018-04-13T07:38:57.143Z,978.89
2018-04-13T07:39:57.267Z,979
2018-04-13T07:40:57.134Z,978.95
2018-04-13T07:41:57.131Z,978.95
2018-04-13T07:42:57.138Z,978.97
2018-04-13T07:43:57.128Z,979
2018-04-13T07:44:57.179Z,979.03
2018-04-13T07:45:57.135Z,979.05
2018-04-13T07:46:57.125Z,979.05
2018-04-13T07:47:57.128Z,979.07
2018-04-13T07:48:57.144Z,979.04
2018-04-13T07:49:57.122Z,979.01
2018-04-13T07:50:57.121Z,979.04
2018-04-13T07:51:57.120Z,979.01
2018-04-13T07:52:57.124Z,979.07
2018-04-13T07:53:57.117Z,979.06
2018-04-13T07:54:57.121Z,979.07
2018-04-13T07:55:57.116Z,979.1
2018-04-13T07:56:57.121Z,979.15
2018-04-13T07:57:57.119Z,979.17
2018-04-13T07:58:57.112Z,979.19
2018-04-13T07:59:57.113Z,979.17
2018-04-13T08:00:57.113Z,979.18
2018-04-13T08:01:57.110Z,979.18
2018-04-13T08:02:57.679Z,979.17
2018-04-13T08:03:57.109Z,979.14
2018-04-13T08:04:57.110Z,979.15
2018-04-13T08:05:57.108Z,979.18
2018-04-13T08:06:57.116Z,979.2
2018-04-13T08:07:57.106Z,979.23
2018-04-13T08:08:57.330Z,979.25
2018-04-13T08:09:57.104Z,979.22
2018-04-13T08:10:57.102Z,979.25
2018-04-13T08:11:57.103Z,979.25
2018-04-13T08:12:57.100Z,979.25
2018-04-13T08:13:57.101Z,979.3
2018-04-13T08:14:57.100Z,979.3
2018-04-13T08:15:57.097Z,979.31
2018-04-13T08:16:57.098Z,979.34
2018-04-13T08:17:57.106Z,979.33
2018-04-13T08:18:57.097Z,979.33
2018-04-13T08:19:57.098Z,979.35
2018-04-13T08:20:57.095Z,979.36
2018-04-13T08:21:57.097Z,979.32
2018-04-13T08:22:57.095Z,979.38
2018-04-13T08:23:57.094Z,979.39
2018-04-13T08:24:58.350Z,979.41
2018-04-13T08:25:57.093Z,979.45
2018-04-13T08:26:57.092Z,979.43
2018-04-13T08:27:57.093Z,979.45
2018-04-13T08:28:57.124Z,979.46
2018-04-13T08:29:57.091Z,979.46
2018-04-13T08:30:57.092Z,979.49
2018-04-13T08:31:57.096Z,979.49
2018-04-13T08:32:57.103Z,979.52
2018-04-13T08:33:57.092Z,979.5
2018-04-13T08:34:57.092Z,979.5
2018-04-13T08:35:57.090Z,979.51
2018-04-13T08:36:57.091Z,979.51
2018-04-13T08:37:57.090Z,979.54
2018-04-13T08:38:57.092Z,979.52
2018-04-13T08:39:57.090Z,979.57
2018-04-13T08:40:57.091Z,979.54
2018-04-13T08:41:57.091Z,979.57
2018-04-13T08:42:57.092Z,979.56
2018-04-13T08:43:57.096Z,979.58
2018-04-13T08:44:57.091Z,979.63
2018-04-13T08:45:57.093Z,979.65
2018-04-13T08:46:57.092Z,979.68
2018-04-13T08:47:57.092Z,979.74
2018-04-13T08:48:57.129Z,979.74
2018-04-13T08:49:57.098Z,979.75
2018-04-13T08:50:57.092Z,979.75
2018-04-13T08:51:57.099Z,979.79
2018-04-13T08:52:57.092Z,979.83
2018-04-13T08:53:57.091Z,979.85
2018-04-13T08:54:57.111Z,979.88
2018-04-13T08:55:57.093Z,979.95
2018-04-13T08:56:57.126Z,979.96
2018-04-13T08:57:57.091Z,980
2018-04-13T08:58:57.092Z,980.04
2018-04-13T08:59:57.091Z,980.03
2018-04-13T09:00:57.102Z,980.04
2018-04-13T09:01:57.095Z,980.05
2018-04-13T09:02:57.097Z,980.04
2018-04-13T09:03:57.103Z,980.08
2018-04-13T09:04:57.094Z,980.09
2018-04-13T09:05:57.091Z,980.12
2018-04-13T09:06:57.089Z,980.16
2018-04-13T09:07:57.099Z,980.16
2018-04-13T09:08:57.092Z,980.22
2018-04-13T09:09:57.091Z,980.23
2018-04-13T09:10:57.092Z,980.24
2018-04-13T09:11:57.094Z,980.21
2018-04-13T09:12:57.122Z,980.23
2018-04-13T09:13:57.095Z,980.31
2018-04-13T09:14:57.090Z,980.33
2018-04-13T09:15:57.090Z,980.31
2018-04-13T09:16:57.092Z,980.33
2018-04-13T09:17:57.090Z,980.36
2018-04-13T09:18:57.094Z,980.43
2018-04-13T09:19:57.093Z,980.41
2018-04-13T09:20:57.106Z,980.46
2018-04-13T09:21:57.092Z,980.47
2018-04-13T09:22:57.091Z,980.5
2018-04-13T09:23:57.099Z,980.56
2018-04-13T09:24:57.093Z,980.57
2018-04-13T09:25:57.092Z,980.6
2018-04-13T09:26:57.212Z,980.64
2018-04-13T09:27:57.133Z,980.66
2018-04-13T09:28:57.090Z,980.66
2018-04-13T09:29:57.091Z,980.71
2018-04-13T09:30:57.090Z,980.69
2018-04-13T09:31:57.091Z,980.76
2018-04-13T09:32:57.092Z,980.82
2018-04-13T09:33:57.095Z,980.82
2018-04-13T09:34:57.092Z,980.9
2018-04-13T09:35:57.101Z,980.92
2018-04-13T09:36:57.093Z,980.95
2018-04-13T09:37:57.090Z,980.98
2018-04-13T09:38:57.098Z,980.98
2018-04-13T09:39:57.093Z,981.01
2018-04-13T09:40:57.092Z,981.07
2018-04-13T09:41:57.092Z,981.06
2018-04-13T09:42:57.090Z,981.07
2018-04-13T09:43:57.091Z,981.14
2018-04-13T09:44:57.109Z,981.18
2018-04-13T09:45:57.090Z,981.21
2018-04-13T09:46:57.089Z,981.19
2018-04-13T09:47:57.091Z,981.18
2018-04-13T09:48:57.090Z,981.24
2018-04-13T09:49:57.092Z,981.27
2018-04-13T09:50:57.088Z,981.29
2018-04-13T09:51:57.092Z,981.33
2018-04-13T09:52:57.089Z,981.41
2018-04-13T09:53:57.087Z,981.33
2018-04-13T09:54:57.090Z,981.45
2018-04-13T09:55:57.339Z,981.42
2018-04-13T09:56:57.086Z,981.47
2018-04-13T09:57:57.088Z,981.55
2018-04-13T09:58:57.087Z,981.53
2018-04-13T09:59:57.087Z,981.6
2018-04-13T10:00:57.087Z,981.68
2018-04-13T10:01:57.092Z,981.75
2018-04-13T10:02:57.094Z,981.76
2018-04-13T10:03:57.088Z,981.78
2018-04-13T10:04:57.087Z,981.93
2018-04-13T10:05:57.087Z,981.92
2018-04-13T10:06:57.086Z,982.01
2018-04-13T10:07:57.089Z,982.1
2018-04-13T10:08:57.086Z,982.18
2018-04-13T10:09:57.085Z,982.15
2018-04-13T10:10:58.437Z,982.17
2018-04-13T10:11:57.084Z,982.2
2018-04-13T10:12:57.085Z,982.24
2018-04-13T10:13:57.091Z,982.27
2018-04-13T10:14:57.083Z,982.28
2018-04-13T10:15:57.083Z,982.22
2018-04-13T10:16:57.092Z,982.3
2018-04-13T10:17:57.082Z,982.29
2018-04-13T10:18:57.087Z,982.34
2018-04-13T10:19:57.082Z,982.35
2018-04-13T10:20:57.080Z,982.42
2018-04-13T10:21:57.081Z,982.5
2018-04-13T10:52:35.946Z,983.33
2018-04-13T10:53:35.639Z,983.29
2018-04-13T10:54:35.631Z,983.35
2018-04-13T10:55:35.632Z,983.4
2018-04-13T10:56:35.616Z,983.38
2018-04-13T10:57:35.610Z,983.45
2018-04-13T10:58:35.606Z,983.41
2018-04-13T10:59:35.600Z,983.41
2018-04-13T11:00:35.596Z,983.41
2018-04-13T11:01:35.593Z,983.52
2018-04-13T11:02:35.588Z,983.6
2018-04-13T11:03:35.584Z,983.62
2018-04-13T11:04:35.583Z,983.61
2018-04-13T11:05:35.579Z,983.65
2018-04-13T11:06:35.575Z,983.66
2018-04-13T11:07:35.626Z,983.68
2018-04-13T11:08:35.570Z,983.69
2018-04-13T11:09:35.574Z,983.71
2018-04-13T11:10:35.565Z,983.71
2018-04-13T11:11:35.563Z,983.74
2018-04-13T11:12:35.560Z,983.77
2018-04-13T11:13:35.560Z,983.8
2018-04-13T11:14:35.555Z,983.79
2018-04-13T11:15:35.556Z,983.84
2018-04-13T11:16:35.553Z,983.77
2018-04-13T11:17:35.551Z,983.89
2018-04-13T11:18:35.547Z,983.92
2018-04-13T11:19:35.547Z,983.91
2018-04-13T11:20:35.544Z,983.94
2018-04-13T11:21:35.542Z,983.92
2018-04-13T11:22:35.540Z,983.99
2018-04-13T11:23:35.538Z,984.04
2018-04-13T11:24:35.535Z,984.01
2018-04-13T11:25:35.535Z,984.04
2018-04-13T11:26:35.531Z,984.08
2018-04-13T11:27:35.530Z,984.07
2018-04-13T11:28:35.528Z,984.13
2018-04-13T11:29:35.527Z,984.09
2018-04-13T11:30:35.531Z,984.12
2018-04-13T11:31:35.524Z,984.13
2018-04-13T11:32:35.520Z,984.2
2018-04-13T11:33:35.578Z,984.21
2018-04-13T11:34:35.519Z,984.15
2018-04-13T11:35:35.515Z,984.25
2018-04-13T11:36:35.514Z,984.24
2018-04-13T11:37:35.516Z,984.31
2018-04-13T11:38:35.511Z,984.3
2018-04-13T11:39:35.512Z,984.35
2018-04-13T11:40:35.509Z,984.38
2018-04-13T11:41:35.561Z,984.4
2018-04-13T11:42:35.505Z,984.43
2018-04-13T11:43:35.503Z,984.46
2018-04-13T11:44:35.502Z,984.47
2018-04-13T11:45:35.500Z,984.48
2018-04-13T11:46:35.503Z,984.51
2018-04-13T11:47:35.510Z,984.51
2018-04-13T11:48:35.493Z,984.52
2018-04-13T11:49:35.493Z,984.59
2018-04-13T11:50:35.489Z,984.58
2018-04-13T11:51:35.489Z,984.62
2018-04-13T11:52:35.489Z,984.62
2018-04-13T11:53:35.483Z,984.66
2018-04-13T11:54:35.482Z,984.66
2018-04-13T11:55:35.480Z,984.7
2018-04-13T11:56:35.478Z,984.73
2018-04-13T11:57:35.477Z,984.72
2018-04-13T11:58:35.474Z,984.68
2018-04-13T11:59:35.472Z,984.74
2018-04-13T12:00:35.470Z,984.74
2018-04-13T12:01:35.467Z,984.75
2018-04-13T12:02:35.467Z,984.73
2018-04-13T12:03:35.464Z,984.79
2018-04-13T12:04:35.463Z,984.76
2018-04-13T12:05:35.460Z,984.8
2018-04-13T12:06:35.460Z,984.83
2018-04-13T12:07:35.482Z,984.87
2018-04-13T12:08:35.481Z,984.87
2018-04-13T12:09:35.453Z,984.89
2018-04-13T12:10:35.453Z,984.9
2018-04-13T12:11:35.449Z,984.95
2018-04-13T12:12:35.454Z,984.93
2018-04-13T12:13:35.444Z,984.99
2018-04-13T12:14:35.443Z,985
2018-04-13T12:15:35.440Z,985.02
2018-04-13T12:16:35.438Z,985.04
2018-04-13T12:17:35.436Z,985.03
2018-04-13T12:18:35.435Z,985.05
2018-04-13T12:19:35.430Z,985.1
2018-04-13T12:20:35.432Z,985.07
2018-04-13T12:21:35.437Z,985.13
2018-04-13T12:22:35.437Z,985.13
2018-04-13T12:23:35.435Z,985.18
2018-04-13T12:24:35.426Z,985.22
2018-04-13T12:25:35.425Z,985.25
2018-04-13T12:26:35.480Z,985.27
2018-04-13T12:27:35.414Z,985.25
2018-04-13T12:28:35.411Z,985.28
2018-04-13T12:29:35.409Z,985.3
2018-04-13T12:30:35.406Z,985.33
2018-04-13T12:31:35.407Z,985.37
2018-04-13T12:32:35.406Z,985.37
2018-04-13T12:33:35.410Z,985.36
2018-04-13T12:34:35.403Z,985.38
2018-04-13T12:35:35.397Z,985.44
2018-04-13T12:36:35.395Z,985.49
2018-04-13T12:37:35.393Z,985.53
2018-04-13T12:38:35.388Z,985.49
2018-04-13T12:39:35.385Z,985.56
2018-04-13T12:40:35.383Z,985.56
2018-04-13T12:41:35.383Z,985.57
2018-04-13T12:42:35.377Z,985.65
2018-04-13T12:43:35.375Z,985.62
2018-04-13T12:44:35.373Z,985.68
2018-04-13T12:45:35.400Z,985.7
2018-04-13T12:46:35.378Z,985.74
2018-04-13T12:47:35.372Z,985.76
2018-04-13T12:48:35.410Z,985.81
2018-04-13T12:49:35.361Z,985.84
2018-04-13T12:50:35.360Z,985.9
2018-04-13T12:51:35.357Z,985.91
2018-04-13T12:52:35.398Z,985.92
2018-04-13T12:53:35.404Z,985.93
2018-04-13T12:54:35.615Z,985.93
2018-04-13T12:55:35.418Z,985.96
2018-04-13T12:56:35.373Z,986
2018-04-13T12:57:35.346Z,985.98
2018-04-13T12:58:35.342Z,985.98
2018-04-13T12:59:35.339Z,985.99
2018-04-13T13:00:35.341Z,985.97
2018-04-13T13:01:35.335Z,985.97
2018-04-13T13:02:35.334Z,985.93
2018-04-13T13:03:35.331Z,985.97
2018-04-13T13:04:35.330Z,985.95
2018-04-13T13:05:35.327Z,985.99
2018-04-13T13:06:35.325Z,986.02
2018-04-13T13:07:35.326Z,986.03
2018-04-13T13:08:38.728Z,985.98
2018-04-13T13:09:35.319Z,986
2018-04-13T13:10:35.316Z,985.98
2018-04-13T13:11:35.314Z,986.01
2018-04-13T13:12:35.316Z,985.92
2018-04-13T13:13:35.309Z,985.92
2018-04-13T13:14:35.309Z,985.92
2018-04-13T13:15:35.354Z,985.92
2018-04-13T13:16:35.308Z,985.94
2018-04-13T13:17:35.301Z,985.98